Latest Coastal Weather Observations for Gunn Point

IDD60701

Issued at 2:41 am CST Monday 27 April 2015 (issued every 10 minutes, with the page automatically refreshed every 10 minutes)

About coastal observations | Map of coastal stations | Coastal observations for NT | Marine services | Other Formats
Station Details ID: 014023 Name: GUNN POINT Lat: -12.25 Lon: 131.04 Height: 25.0 m
Data from the previous 72 hours. | See also: Recent months for locations in Northern Territory
Date/Time
CST
Temp

°C
Wind Pressure Rain
since 9am
mm
Weather Cloud Vis
km
Sea
Height
m
Swell
Dir
 
Speed
knots
Gust
knots
hPa Trend Height
m
Period
s
Dir
27/02:30am 19.8 SE 4 7 1012.1 - 0.0 - - - - - - -
27/02:00am 19.4 SE 4 5 1012.2 - 0.0 - - - - - - -
27/01:30am 18.4 SE 3 5 1012.5 - 0.0 - - - - - - -
27/01:00am 17.9 SE 3 5 1012.6 - 0.0 - - - - - - -
27/12:30am 17.9 SE 3 4 1013.1 - 0.0 - - - - - - -
27/12:00am 17.9 SE 2 3 1013.1 - 0.0 - - - - - - -
 
Date/Time
CST
Temp

°C
Wind Pressure Rain
since 9am
mm
Weather Cloud Vis
km
Sea
Height
m
Swell
Dir
 
Speed
knots
Gust
knots
hPa Trend Height
m
Period
s
Dir
26/11:30pm 18.2 SE 1 2 1013.4 - 0.0 - - - - - - -
26/11:00pm 18.5 SSE 2 3 1013.5 - 0.0 - - - - - - -
26/10:30pm 18.4 SE 1 2 1013.5 - 0.0 - - - - - - -
26/10:00pm 18.8 CALM 0 0 1013.5 - 0.0 - - - - - - -
26/09:30pm 19.1 CALM 0 0 1013.5 - 0.0 - - - - - - -
26/09:00pm 19.5 CALM 0 0 1013.3 - 0.0 - - - - - - -
26/08:30pm 20.1 CALM 0 0 1013.0 - 0.0 - - - - - - -
26/08:00pm 20.7 CALM 0 0 1012.7 - 0.0 - - - - - - -
26/07:30pm 21.5 CALM 0 0 1012.2 - 0.0 - - - - - - -
26/07:00pm 22.8 CALM 0 0 1011.8 - 0.0 - - - - - - -
26/06:30pm 24.6 CALM 0 2 1011.5 - 0.0 - - - - - - -
26/06:00pm 27.3 NE 1 2 1011.0 - 0.0 - - - - - - -
26/05:30pm 28.6 NE 2 3 1010.7 - 0.0 - - - - - - -
26/05:00pm 30.5 E 3 6 1010.4 - 0.0 - - - - - - -
26/04:30pm 31.0 ESE 4 8 1010.3 - 0.0 - - - - - - -
26/04:00pm 31.3 ESE 5 10 1010.3 - 0.0 - - - - - - -
26/03:30pm 31.2 ESE 6 11 1010.5 - 0.0 - - - - - - -
26/03:00pm 31.6 SE 5 9 1010.7 - 0.0 - - - - - - -
26/02:30pm 31.2 E 6 11 1011.0 - 0.0 - - - - - - -
26/02:00pm 31.4 ESE 5 9 1011.2 - 0.0 - - - - - - -
26/01:30pm 31.3 ESE 6 11 1011.4 - 0.0 - - - - - - -
26/01:00pm 30.7 ESE 5 9 1011.9 - 0.0 - - - - - - -
26/12:30pm 29.9 ESE 6 11 1012.5 - 0.0 - - - - - - -
26/12:00pm 30.1 ESE 5 9 1012.8 - 0.0 - - - - - - -
26/11:30am 29.6 SE 7 11 1013.2 - 0.0 - - - - - - -
26/11:00am 28.8 SSE 7 13 1013.7 - 0.0 - - - - - - -
26/10:30am 27.8 SE 7 12 1013.7 - 0.0 - - - - - - -
26/10:00am 27.4 SE 5 10 1013.6 - 0.0 - - - - - - -
26/09:30am 26.6 SE 4 8 1013.4 - 0.0 - - - - - - -
26/09:00am 24.8 SE 6 10 1013.1 - 0.0 - - - - - - -
26/08:30am 23.5 SE 5 8 1012.8 - 0.0 - - - - - - -
26/08:00am 21.2 SE 4 8 1012.6 - 0.0 - - - - - - -
26/07:30am 20.1 SE 3 4 1012.2 - 0.0 - - - - - - -
26/07:00am 19.9 SE 3 5 1011.7 - 0.0 - - - - - - -
26/06:30am 19.2 ESE 3 5 1011.3 - 0.0 - - - - - - -
26/06:00am 19.3 ESE 3 4 1011.0 - 0.0 - - - - - - -
26/05:30am 18.6 ESE 2 3 1011.0 - 0.0 - - - - - - -
26/05:00am 18.6 SE 1 3 1010.7 - 0.0 - - - - - - -
26/04:30am 18.6 CALM 0 0 1011.0 - 0.0 - - - - - - -
26/04:00am 18.7 CALM 0 1 1010.9 - 0.0 - - - - - - -
26/03:30am 19.4 CALM 0 1 1010.9 - 0.0 - - - - - - -
26/03:00am 19.5 CALM 0 0 1011.1 - 0.0 - - - - - - -
26/02:30am 20.1 CALM 0 0 1011.1 - 0.0 - - - - - - -
26/02:00am 21.0 ENE 1 3 1011.3 - 0.0 - - - - - - -
26/01:30am 20.4 CALM 0 2 1011.5 - 0.0 - - - - - - -
26/01:00am 21.1 CALM 0 0 1011.7 - 0.0 - - - - - - -
26/12:30am 20.9 CALM 0 0 1011.8 - 0.0 - - - - - - -
26/12:00am 21.2 CALM 0 0 1011.7 - 0.0 - - - - - - -
 
Date/Time
CST
Temp

°C
Wind Pressure Rain
since 9am
mm
Weather Cloud Vis
km
Sea
Height
m
Swell
Dir
 
Speed
knots
Gust
knots
hPa Trend Height
m
Period
s
Dir
25/11:30pm 21.7 S 1 2 1011.7 - 0.0 - - - - - - -
25/11:00pm 22.1 S 2 5 1011.9 - 0.0 - - - - - - -
25/10:30pm 21.5 CALM 0 0 1011.7 - 0.0 - - - - - - -
25/10:00pm 22.1 CALM 0 0 1011.6 - 0.0 - - - - - - -
25/09:30pm 22.3 CALM 0 0 1011.5 - 0.0 - - - - - - -
25/09:00pm 22.8 CALM 0 0 1011.2 - 0.0 - - - - - - -
25/08:30pm 23.3 CALM 0 0 1011.1 - 0.0 - - - - - - -
25/08:00pm 24.0 CALM 0 1 1010.6 - 0.0 - - - - - - -
25/07:30pm 24.7 NE 2 3 1010.2 - 0.0 - - - - - - -
25/07:00pm 25.8 NE 2 4 1009.7 - 0.0 - - - - - - -
25/06:30pm 27.2 NE 3 5 1009.3 - 0.0 - - - - - - -
25/06:00pm 28.3 NE 3 6 1009.3 - 0.0 - - - - - - -
25/05:30pm 29.8 NE 4 7 1008.9 - 0.0 - - - - - - -
25/05:00pm 30.5 NE 5 8 1008.6 - 0.0 - - - - - - -
25/04:30pm 30.9 NE 5 9 1008.4 - 0.0 - - - - - - -
25/04:00pm 31.4 NNE 5 8 1008.2 - 0.0 - - - - - - -
25/03:30pm 31.9 NE 5 9 1008.3 - 0.0 - - - - - - -
25/03:00pm 31.8 NE 6 11 1008.5 - 0.0 - - - - - - -
25/02:30pm 32.0 NNE 6 12 1008.8 - 0.0 - - - - - - -
25/02:00pm 32.5 NE 5 10 1009.1 - 0.0 - - - - - - -
25/01:30pm 32.3 NNE 5 10 1009.5 - 0.0 - - - - - - -
25/01:00pm 32.6 ENE 5 8 1009.6 - 0.0 - - - - - - -
25/12:30pm 32.3 ENE 5 10 1009.9 - 0.0 - - - - - - -
25/12:00pm 31.9 ENE 7 12 1010.3 - 0.0 - - - - - - -
25/11:30am 32.0 E 3 7 1010.5 - 0.0 - - - - - - -
25/11:00am 30.9 ESE 3 6 1011.0 - 0.0 - - - - - - -
25/10:30am 30.5 E 4 8 1011.2 - 0.0 - - - - - - -
25/10:00am 30.2 ENE 4 6 1011.2 - 0.0 - - - - - - -
25/09:30am 29.8 E 4 7 1011.1 - 0.0 - - - - - - -
25/09:00am 28.7 ENE 2 5 1010.8 - 0.0 - - - - - - -
25/08:30am 27.5 E 3 5 1010.7 - 0.0 - - - - - - -
25/08:00am 25.4 ENE 2 3 1010.5 - 0.0 - - - - - - -
25/07:30am 23.0 CALM 0 1 1010.3 - 0.0 - - - - - - -
25/07:00am 22.5 ENE 1 2 1009.9 - 0.0 - - - - - - -
25/06:30am 21.9 NE 1 2 1009.6 - 0.0 - - - - - - -
25/06:00am 21.8 ENE 1 2 1009.3 - 0.0 - - - - - - -
25/05:30am 21.9 CALM 0 0 1009.3 - 0.0 - - - - - - -
25/05:00am 22.4 SSE 1 2 1009.4 - 0.0 - - - - - - -
25/04:30am 22.2 CALM 0 0 1009.5 - 0.0 - - - - - - -
25/04:00am 22.8 CALM 0 0 1009.6 - 0.0 - - - - - - -
25/03:30am 22.6 CALM 0 2 1009.7 - 0.0 - - - - - - -
25/03:00am 23.1 CALM 0 0 1009.8 - 0.0 - - - - - - -
25/02:30am 23.2 CALM 0 0 1009.7 - 0.0 - - - - - - -
25/02:00am 23.8 CALM 0 0 1009.7 - 0.0 - - - - - - -
25/01:30am 24.5 CALM 0 0 1009.9 - 0.0 - - - - - - -
25/01:00am 24.6 CALM 0 0 1010.0 - 0.0 - - - - - - -
25/12:30am 24.8 S 1 2 1010.2 - 0.0 - - - - - - -
25/12:00am 24.8 CALM 0 0 1010.4 - 0.0 - - - - - - -
 
Date/Time
CST
Temp

°C
Wind Pressure Rain
since 9am
mm
Weather Cloud Vis
km
Sea
Height
m
Swell
Dir
 
Speed
knots
Gust
knots
hPa Trend Height
m
Period
s
Dir
24/11:30pm 24.7 CALM 0 1 1010.8 - 0.0 - - - - - - -
24/11:00pm 24.4 CALM 0 0 1011.0 - 0.0 - - - - - - -
24/10:30pm 24.1 CALM 0 0 1011.0 - 0.0 - - - - - - -
24/10:00pm 23.9 CALM 0 0 1011.1 - 0.0 - - - - - - -
24/09:30pm 24.0 CALM 0 0 1011.0 - 0.0 - - - - - - -
24/09:00pm 24.1 CALM 0 0 1010.7 - 0.0 - - - - - - -
24/08:30pm 24.6 CALM 0 0 1010.2 - 0.0 - - - - - - -
24/08:00pm 25.3 NE 1 2 1009.8 - 0.0 - - - - - - -
24/07:30pm 25.9 CALM 0 0 1009.4 - 0.0 - - - - - - -
24/07:00pm 27.1 CALM 0 1 1009.1 - 0.0 - - - - - - -
24/06:30pm 27.9 NNE 1 3 1008.8 - 0.0 - - - - - - -
24/06:00pm 29.3 NNE 3 5 1008.4 - 0.0 - - - - - - -
24/05:30pm 30.0 NNE 2 5 1008.1 - 0.0 - - - - - - -
24/05:00pm 30.6 NNE 3 5 1007.9 - 0.0 - - - - - - -
24/04:30pm 30.9 N 2 5 1007.7 - 0.0 - - - - - - -
24/04:00pm 30.4 N 3 5 1007.8 - 0.0 - - - - - - -
24/03:30pm 31.1 NNE 4 6 1007.8 - 0.0 - - - - - - -
24/03:00pm 30.3 NNW 3 6 1008.0 - 0.0 - - - - - - -
24/02:30pm 31.9 NW 4 7 1008.2 - 0.0 - - - - - - -
24/02:00pm 31.6 W 5 8 1008.5 - 0.0 - - - - - - -
24/01:30pm 31.0 WNW 5 9 1008.7 - 0.0 - - - - - - -
24/01:00pm 31.6 WNW 5 10 1009.1 - 0.0 - - - - - - -
24/12:30pm 30.7 WNW 4 7 1009.5 - 0.0 - - - - - - -
24/12:00pm 31.1 SW 3 7 1009.8 - 0.0 - - - - - - -
24/11:30am 32.0 N 3 6 1010.4 - 0.0 - - - - - - -
24/11:00am 31.3 NE 2 5 1010.7 - 0.0 - - - - - - -
24/10:30am 30.3 E 2 3 1011.0 - 0.0 - - - - - - -
24/10:00am 30.3 SE 2 4 1011.0 - 0.0 - - - - - - -
24/09:30am 29.9 SSE 3 4 1011.0 - 0.0 - - - - - - -
24/09:00am 28.8 SE 2 3 1011.0 - 0.0 - - - - - - -
24/08:30am 27.5 CALM 0 1 1010.8 - 0.0 - - - - - - -
24/08:00am 25.9 SE 1 3 1010.7 - 0.0 - - - - - - -
24/07:30am 23.8 SSE 2 3 1010.6 - 0.0 - - - - - - -
24/07:00am 22.9 SE 2 3 1010.3 - 0.0 - - - - - - -
24/06:30am 22.7 SE 2 2 1010.2 - 0.0 - - - - - - -
24/06:00am 22.9 SE 2 3 1009.9 - 0.0 - - - - - - -
24/05:30am 22.5 SSE 2 3 1009.8 - 0.0 - - - - - - -
24/05:00am 22.1 SE 2 2 1009.7 - 0.0 - - - - - - -
24/04:30am 21.9 CALM 0 0 1009.7 - 0.0 - - - - - - -
24/04:00am 21.9 CALM 0 0 1009.5 - 0.0 - - - - - - -
24/03:30am 22.1 CALM 0 0 1009.5 - 0.0 - - - - - - -
24/03:00am 22.1 CALM 0 0 1009.6 - 0.0 - - - - - - -

Other Formats:

Comma delimited format used in spreadsheet applications
http://www.bom.gov.au/fwo/IDD60701/IDD60701.99501.axf

JavaScript Object Notation format (JSON) in row-major order
http://www.bom.gov.au/fwo/IDD60701/IDD60701.99501.json